sensor_id;sensor_type;location;lat;lon;timestamp;pressure;altitude;pressure_sealevel;temperature;humidity
11936;BME280;6027;48.576;9.180;2023-04-09T00:02:13;97492.91;;;7.57;100.00
11936;BME280;6027;48.576;9.180;2023-04-09T00:04:38;97493.44;;;7.61;100.00
11936;BME280;6027;48.576;9.180;2023-04-09T00:07:04;97485.28;;;7.54;100.00
11936;BME280;6027;48.576;9.180;2023-04-09T00:09:29;97488.16;;;7.61;100.00
11936;BME280;6027;48.576;9.180;2023-04-09T00:11:56;97465.41;;;7.42;100.00
11936;BME280;6027;48.576;9.180;2023-04-09T00:16:49;97474.38;;;7.49;100.00
11936;BME280;6027;48.576;9.180;2023-04-09T00:19:15;97486.25;;;7.53;100.00
11936;BME280;6027;48.576;9.180;2023-04-09T00:21:41;97489.59;;;7.55;100.00
11936;BME280;6027;48.576;9.180;2023-04-09T00:24:06;97492.50;;;7.52;100.00
11936;BME280;6027;48.576;9.180;2023-04-09T00:26:32;97483.63;;;7.53;100.00
11936;BME280;6027;48.576;9.180;2023-04-09T00:28:57;97483.03;;;7.59;100.00
11936;BME280;6027;48.576;9.180;2023-04-09T00:31:23;97477.09;;;7.57;100.00
11936;BME280;6027;48.576;9.180;2023-04-09T00:33:48;97485.44;;;7.53;100.00
11936;BME280;6027;48.576;9.180;2023-04-09T00:36:13;97491.25;;;7.56;100.00
11936;BME280;6027;48.576;9.180;2023-04-09T00:38:39;97485.97;;;7.56;100.00
11936;BME280;6027;48.576;9.180;2023-04-09T00:41:05;97479.44;;;7.60;100.00
11936;BME280;6027;48.576;9.180;2023-04-09T00:43:31;97482.81;;;7.53;100.00
11936;BME280;6027;48.576;9.180;2023-04-09T00:45:57;97479.34;;;7.52;100.00
11936;BME280;6027;48.576;9.180;2023-04-09T00:48:23;97480.72;;;7.56;100.00
11936;BME280;6027;48.576;9.180;2023-04-09T00:50:48;97477.38;;;7.54;100.00
11936;BME280;6027;48.576;9.180;2023-04-09T00:53:14;97477.31;;;7.46;100.00
11936;BME280;6027;48.576;9.180;2023-04-09T00:55:40;97482.19;;;7.41;100.00
11936;BME280;6027;48.576;9.180;2023-04-09T00:58:06;97480.97;;;7.36;100.00
11936;BME280;6027;48.576;9.180;2023-04-09T01:00:31;97485.41;;;7.35;100.00
11936;BME280;6027;48.576;9.180;2023-04-09T01:02:57;97476.53;;;7.36;100.00
11936;BME280;6027;48.576;9.180;2023-04-09T01:05:28;97481.78;;;7.36;100.00
11936;BME280;6027;48.576;9.180;2023-04-09T01:08:11;97477.50;;;7.35;100.00
11936;BME280;6027;48.576;9.180;2023-04-09T01:16:29;97468.63;;;7.36;100.00
11936;BME280;6027;48.576;9.180;2023-04-09T01:19:09;97479.84;;;7.38;100.00
11936;BME280;6027;48.576;9.180;2023-04-09T01:21:42;97471.53;;;7.33;100.00
11936;BME280;6027;48.576;9.180;2023-04-09T01:24:39;97474.72;;;7.37;100.00
11936;BME280;6027;48.576;9.180;2023-04-09T01:27:07;97482.34;;;7.40;100.00
11936;BME280;6027;48.576;9.180;2023-04-09T01:29:46;97482.78;;;7.35;100.00
11936;BME280;6027;48.576;9.180;2023-04-09T01:32:13;97481.09;;;7.34;100.00
11936;BME280;6027;48.576;9.180;2023-04-09T01:34:41;97481.34;;;7.41;100.00
11936;BME280;6027;48.576;9.180;2023-04-09T01:37:09;97477.22;;;7.38;100.00
11936;BME280;6027;48.576;9.180;2023-04-09T01:39:36;97475.94;;;7.42;100.00
11936;BME280;6027;48.576;9.180;2023-04-09T01:42:01;97487.47;;;7.41;100.00
11936;BME280;6027;48.576;9.180;2023-04-09T01:44:28;97474.72;;;7.37;100.00
11936;BME280;6027;48.576;9.180;2023-04-09T01:46:54;97489.00;;;7.34;100.00
11936;BME280;6027;48.576;9.180;2023-04-09T01:49:22;97483.59;;;7.36;100.00
11936;BME280;6027;48.576;9.180;2023-04-09T01:51:47;97482.22;;;7.32;100.00
11936;BME280;6027;48.576;9.180;2023-04-09T01:54:15;97476.97;;;7.32;100.00
11936;BME280;6027;48.576;9.180;2023-04-09T01:56:45;97482.47;;;7.38;100.00
11936;BME280;6027;48.576;9.180;2023-04-09T01:59:12;97487.06;;;7.36;100.00
11936;BME280;6027;48.576;9.180;2023-04-09T02:01:46;97492.47;;;7.35;100.00
11936;BME280;6027;48.576;9.180;2023-04-09T02:09:23;97488.25;;;7.24;100.00
11936;BME280;6027;48.576;9.180;2023-04-09T02:11:52;97482.59;;;7.19;100.00
11936;BME280;6027;48.576;9.180;2023-04-09T02:14:19;97481.34;;;7.13;100.00
11936;BME280;6027;48.576;9.180;2023-04-09T02:16:45;97478.22;;;7.10;100.00
11936;BME280;6027;48.576;9.180;2023-04-09T02:19:11;97487.66;;;7.03;100.00
11936;BME280;6027;48.576;9.180;2023-04-09T02:21:36;97486.00;;;7.02;100.00
11936;BME280;6027;48.576;9.180;2023-04-09T02:24:02;97484.59;;;7.07;100.00
11936;BME280;6027;48.576;9.180;2023-04-09T02:26:27;97477.22;;;7.11;100.00
11936;BME280;6027;48.576;9.180;2023-04-09T02:28:53;97473.44;;;7.13;100.00
11936;BME280;6027;48.576;9.180;2023-04-09T02:31:18;97473.63;;;7.12;100.00
11936;BME280;6027;48.576;9.180;2023-04-09T02:33:44;97467.66;;;7.10;100.00
11936;BME280;6027;48.576;9.180;2023-04-09T02:36:10;97465.25;;;7.16;100.00
11936;BME280;6027;48.576;9.180;2023-04-09T02:38:39;97469.84;;;7.14;100.00
11936;BME280;6027;48.576;9.180;2023-04-09T02:41:05;97469.97;;;7.13;100.00
11936;BME280;6027;48.576;9.180;2023-04-09T02:43:30;97468.34;;;7.12;100.00
11936;BME280;6027;48.576;9.180;2023-04-09T02:45:56;97472.34;;;7.16;100.00
11936;BME280;6027;48.576;9.180;2023-04-09T02:48:21;97468.97;;;7.23;100.00
11936;BME280;6027;48.576;9.180;2023-04-09T02:50:47;97467.22;;;7.14;100.00
11936;BME280;6027;48.576;9.180;2023-04-09T02:53:12;97470.25;;;7.19;100.00
11936;BME280;6027;48.576;9.180;2023-04-09T02:55:38;97475.78;;;7.16;100.00
11936;BME280;6027;48.576;9.180;2023-04-09T02:58:03;97466.53;;;7.12;100.00
11936;BME280;6027;48.576;9.180;2023-04-09T03:00:28;97478.56;;;7.15;100.00
11936;BME280;6027;48.576;9.180;2023-04-09T03:02:54;97471.13;;;7.10;100.00
11936;BME280;6027;48.576;9.180;2023-04-09T03:05:19;97465.19;;;7.08;100.00
11936;BME280;6027;48.576;9.180;2023-04-09T03:07:45;97471.66;;;7.14;100.00
11936;BME280;6027;48.576;9.180;2023-04-09T03:10:11;97464.22;;;7.09;100.00
11936;BME280;6027;48.576;9.180;2023-04-09T03:12:36;97467.66;;;7.10;100.00
11936;BME280;6027;48.576;9.180;2023-04-09T03:15:02;97463.88;;;6.85;100.00
11936;BME280;6027;48.576;9.180;2023-04-09T03:17:28;97460.91;;;6.61;100.00
11936;BME280;6027;48.576;9.180;2023-04-09T03:19:56;97463.31;;;6.54;100.00
11936;BME280;6027;48.576;9.180;2023-04-09T03:22:21;97463.53;;;6.70;100.00
11936;BME280;6027;48.576;9.180;2023-04-09T03:24:47;97459.03;;;6.53;100.00
11936;BME280;6027;48.576;9.180;2023-04-09T03:27:12;97454.25;;;6.66;100.00
11936;BME280;6027;48.576;9.180;2023-04-09T03:29:38;97449.69;;;6.68;100.00
11936;BME280;6027;48.576;9.180;2023-04-09T03:32:03;97456.41;;;6.80;100.00
11936;BME280;6027;48.576;9.180;2023-04-09T03:34:29;97461.00;;;6.78;100.00
11936;BME280;6027;48.576;9.180;2023-04-09T03:36:54;97462.94;;;6.76;100.00
11936;BME280;6027;48.576;9.180;2023-04-09T03:39:20;97462.09;;;6.76;100.00
11936;BME280;6027;48.576;9.180;2023-04-09T03:41:45;97466.41;;;6.77;100.00
11936;BME280;6027;48.576;9.180;2023-04-09T03:44:11;97463.63;;;6.78;100.00
11936;BME280;6027;48.576;9.180;2023-04-09T03:49:04;97455.63;;;6.70;100.00
11936;BME280;6027;48.576;9.180;2023-04-09T03:51:30;97452.00;;;6.81;100.00
11936;BME280;6027;48.576;9.180;2023-04-09T03:53:56;97445.47;;;6.85;100.00
11936;BME280;6027;48.576;9.180;2023-04-09T03:56:21;97455.44;;;6.91;100.00
11936;BME280;6027;48.576;9.180;2023-04-09T03:58:47;97452.25;;;6.87;100.00
11936;BME280;6027;48.576;9.180;2023-04-09T04:01:13;97464.16;;;6.91;100.00
11936;BME280;6027;48.576;9.180;2023-04-09T04:03:39;97461.66;;;6.90;100.00
11936;BME280;6027;48.576;9.180;2023-04-09T04:06:04;97453.63;;;6.91;100.00
11936;BME280;6027;48.576;9.180;2023-04-09T04:08:30;97444.06;;;6.90;100.00
11936;BME280;6027;48.576;9.180;2023-04-09T04:10:55;97456.63;;;6.97;100.00
11936;BME280;6027;48.576;9.180;2023-04-09T04:13:26;97446.78;;;6.99;100.00
11936;BME280;6027;48.576;9.180;2023-04-09T04:15:52;97453.84;;;6.98;100.00
11936;BME280;6027;48.576;9.180;2023-04-09T04:18:17;97452.25;;;6.87;100.00
11936;BME280;6027;48.576;9.180;2023-04-09T04:20:43;97458.50;;;6.77;100.00
11936;BME280;6027;48.576;9.180;2023-04-09T04:23:08;97453.25;;;6.77;100.00
11936;BME280;6027;48.576;9.180;2023-04-09T04:25:33;97457.38;;;6.79;100.00
11936;BME280;6027;48.576;9.180;2023-04-09T04:27:59;97458.66;;;6.75;100.00
11936;BME280;6027;48.576;9.180;2023-04-09T04:30:24;97462.25;;;6.74;100.00
11936;BME280;6027;48.576;9.180;2023-04-09T04:32:50;97466.44;;;6.67;100.00
11936;BME280;6027;48.576;9.180;2023-04-09T04:35:15;97462.94;;;6.76;100.00
11936;BME280;6027;48.576;9.180;2023-04-09T04:37:41;97462.41;;;6.73;100.00
11936;BME280;6027;48.576;9.180;2023-04-09T04:40:07;97467.50;;;6.74;100.00
11936;BME280;6027;48.576;9.180;2023-04-09T04:42:33;97472.63;;;6.76;100.00
11936;BME280;6027;48.576;9.180;2023-04-09T04:44:59;97477.75;;;6.77;100.00
11936;BME280;6027;48.576;9.180;2023-04-09T04:47:25;97470.59;;;6.70;100.00
11936;BME280;6027;48.576;9.180;2023-04-09T04:49:50;97468.66;;;6.72;100.00
11936;BME280;6027;48.576;9.180;2023-04-09T04:52:16;97475.88;;;6.70;100.00
11936;BME280;6027;48.576;9.180;2023-04-09T04:54:42;97477.53;;;6.71;100.00
11936;BME280;6027;48.576;9.180;2023-04-09T04:57:07;97472.94;;;6.73;100.00
11936;BME280;6027;48.576;9.180;2023-04-09T04:59:36;97472.78;;;6.74;100.00
11936;BME280;6027;48.576;9.180;2023-04-09T05:02:02;97472.50;;;6.77;100.00
11936;BME280;6027;48.576;9.180;2023-04-09T05:04:28;97481.91;;;6.80;100.00
11936;BME280;6027;48.576;9.180;2023-04-09T05:06:54;97486.47;;;6.78;100.00
11936;BME280;6027;48.576;9.180;2023-04-09T05:09:20;97472.13;;;6.72;100.00
11936;BME280;6027;48.576;9.180;2023-04-09T05:11:45;97477.63;;;6.79;100.00
11936;BME280;6027;48.576;9.180;2023-04-09T05:14:11;97470.88;;;6.67;100.00
11936;BME280;6027;48.576;9.180;2023-04-09T05:16:37;97480.84;;;6.63;100.00
11936;BME280;6027;48.576;9.180;2023-04-09T05:19:02;97477.25;;;6.64;100.00
11936;BME280;6027;48.576;9.180;2023-04-09T05:21:28;97485.00;;;6.66;100.00
11936;BME280;6027;48.576;9.180;2023-04-09T05:23:53;97482.25;;;6.67;100.00
11936;BME280;6027;48.576;9.180;2023-04-09T05:26:18;97477.53;;;6.71;100.00
11936;BME280;6027;48.576;9.180;2023-04-09T05:28:45;97475.72;;;6.71;100.00
11936;BME280;6027;48.576;9.180;2023-04-09T05:31:11;97473.09;;;6.71;100.00
11936;BME280;6027;48.576;9.180;2023-04-09T05:33:38;97479.19;;;6.72;100.00
11936;BME280;6027;48.576;9.180;2023-04-09T05:36:03;97482.47;;;6.74;100.00
11936;BME280;6027;48.576;9.180;2023-04-09T05:38:29;97467.97;;;6.60;100.00
11936;BME280;6027;48.576;9.180;2023-04-09T05:40:55;97484.34;;;6.54;100.00
11936;BME280;6027;48.576;9.180;2023-04-09T05:43:20;97483.50;;;6.63;100.00
11936;BME280;6027;48.576;9.180;2023-04-09T05:45:46;97480.72;;;6.55;100.00
11936;BME280;6027;48.576;9.180;2023-04-09T05:48:12;97474.84;;;6.24;100.00
11936;BME280;6027;48.576;9.180;2023-04-09T05:50:37;97483.69;;;6.33;100.00
11936;BME280;6027;48.576;9.180;2023-04-09T05:53:03;97480.63;;;6.37;100.00
11936;BME280;6027;48.576;9.180;2023-04-09T05:55:30;97485.88;;;6.37;100.00
11936;BME280;6027;48.576;9.180;2023-04-09T05:57:55;97479.81;;;6.27;100.00
11936;BME280;6027;48.576;9.180;2023-04-09T06:00:21;97479.69;;;6.29;100.00
11936;BME280;6027;48.576;9.180;2023-04-09T06:02:46;97474.97;;;6.32;100.00
11936;BME280;6027;48.576;9.180;2023-04-09T06:05:12;97482.56;;;6.35;100.00
11936;BME280;6027;48.576;9.180;2023-04-09T06:07:38;97490.44;;;6.35;100.00
11936;BME280;6027;48.576;9.180;2023-04-09T06:10:03;97491.16;;;6.47;100.00
11936;BME280;6027;48.576;9.180;2023-04-09T06:12:29;97494.88;;;6.54;100.00
11936;BME280;6027;48.576;9.180;2023-04-09T06:14:54;97484.75;;;6.59;100.00
11936;BME280;6027;48.576;9.180;2023-04-09T06:17:19;97488.31;;;6.68;100.00
11936;BME280;6027;48.576;9.180;2023-04-09T06:19:45;97477.75;;;6.77;100.00
11936;BME280;6027;48.576;9.180;2023-04-09T06:22:10;97485.50;;;6.79;100.00
11936;BME280;6027;48.576;9.180;2023-04-09T06:24:36;97490.22;;;6.75;100.00
11936;BME280;6027;48.576;9.180;2023-04-09T06:27:01;97493.81;;;6.84;100.00
11936;BME280;6027;48.576;9.180;2023-04-09T06:29:26;97483.84;;;6.78;100.00
11936;BME280;6027;48.576;9.180;2023-04-09T06:31:52;97490.22;;;6.85;100.00
11936;BME280;6027;48.576;9.180;2023-04-09T06:34:18;97491.31;;;6.92;100.00
11936;BME280;6027;48.576;9.180;2023-04-09T06:36:43;97492.13;;;6.92;100.00
11936;BME280;6027;48.576;9.180;2023-04-09T06:39:09;97482.13;;;6.96;100.00
11936;BME280;6027;48.576;9.180;2023-04-09T06:41:34;97487.91;;;7.09;100.00
11936;BME280;6027;48.576;9.180;2023-04-09T06:44:00;97490.69;;;7.08;100.00
11936;BME280;6027;48.576;9.180;2023-04-09T06:46:26;97495.16;;;6.98;100.00
11936;BME280;6027;48.576;9.180;2023-04-09T06:48:52;97498.88;;;7.05;100.00
11936;BME280;6027;48.576;9.180;2023-04-09T06:51:18;97497.59;;;7.09;100.00
11936;BME280;6027;48.576;9.180;2023-04-09T06:53:43;97498.53;;;7.17;100.00
11936;BME280;6027;48.576;9.180;2023-04-09T06:56:09;97506.41;;;7.27;100.00
11936;BME280;6027;48.576;9.180;2023-04-09T06:58:35;97505.75;;;7.15;100.00
11936;BME280;6027;48.576;9.180;2023-04-09T07:01:00;97499.75;;;7.23;100.00
11936;BME280;6027;48.576;9.180;2023-04-09T07:03:26;97502.09;;;7.26;100.00
11936;BME280;6027;48.576;9.180;2023-04-09T07:05:53;97501.41;;;7.24;100.00
11936;BME280;6027;48.576;9.180;2023-04-09T07:08:19;97502.72;;;7.38;100.00
11936;BME280;6027;48.576;9.180;2023-04-09T07:10:47;97502.00;;;7.45;100.00
11936;BME280;6027;48.576;9.180;2023-04-09T07:13:12;97495.97;;;7.53;100.00
11936;BME280;6027;48.576;9.180;2023-04-09T07:15:37;97500.28;;;7.54;100.00
11936;BME280;6027;48.576;9.180;2023-04-09T07:18:03;97490.13;;;7.59;100.00
11936;BME280;6027;48.576;9.180;2023-04-09T07:25:23;97512.00;;;7.69;100.00
11936;BME280;6027;48.576;9.180;2023-04-09T07:27:49;97505.56;;;7.72;100.00
11936;BME280;6027;48.576;9.180;2023-04-09T07:30:14;97506.63;;;7.79;100.00
11936;BME280;6027;48.576;9.180;2023-04-09T07:32:40;97509.66;;;7.84;100.00
11936;BME280;6027;48.576;9.180;2023-04-09T07:35:06;97504.00;;;7.79;100.00
11936;BME280;6027;48.576;9.180;2023-04-09T07:37:34;97507.03;;;7.84;100.00
11936;BME280;6027;48.576;9.180;2023-04-09T07:39:59;97511.19;;;7.86;99.79
11936;BME280;6027;48.576;9.180;2023-04-09T07:42:25;97513.50;;;7.89;100.00
11936;BME280;6027;48.576;9.180;2023-04-09T07:44:51;97510.69;;;7.91;98.72
11936;BME280;6027;48.576;9.180;2023-04-09T07:47:18;97520.91;;;8.04;99.85
11936;BME280;6027;48.576;9.180;2023-04-09T07:49:43;97516.66;;;8.11;100.00
11936;BME280;6027;48.576;9.180;2023-04-09T07:52:08;97523.84;;;8.18;99.98
11936;BME280;6027;48.576;9.180;2023-04-09T07:54:34;97523.22;;;8.24;98.48
11936;BME280;6027;48.576;9.180;2023-04-09T07:57:00;97521.50;;;8.33;98.42
11936;BME280;6027;48.576;9.180;2023-04-09T07:59:29;97523.03;;;8.36;98.30
11936;BME280;6027;48.576;9.180;2023-04-09T08:01:56;97522.13;;;8.45;98.17
11936;BME280;6027;48.576;9.180;2023-04-09T08:04:21;97524.13;;;8.51;89.00
11936;BME280;6027;48.576;9.180;2023-04-09T08:06:46;97521.63;;;8.49;84.65
11936;BME280;6027;48.576;9.180;2023-04-09T08:09:18;97525.09;;;8.50;86.32
11936;BME280;6027;48.576;9.180;2023-04-09T08:11:44;97527.69;;;8.42;85.30
11936;BME280;6027;48.576;9.180;2023-04-09T08:14:10;97529.81;;;8.38;85.46
11936;BME280;6027;48.576;9.180;2023-04-09T08:16:39;97527.03;;;8.40;87.03
11936;BME280;6027;48.576;9.180;2023-04-09T08:19:05;97525.94;;;8.50;88.52
11936;BME280;6027;48.576;9.180;2023-04-09T08:21:30;97525.47;;;8.55;85.31
11936;BME280;6027;48.576;9.180;2023-04-09T08:23:56;97523.91;;;8.62;83.39
11936;BME280;6027;48.576;9.180;2023-04-09T08:26:25;97531.31;;;8.66;85.02
11936;BME280;6027;48.576;9.180;2023-04-09T08:28:50;97530.88;;;8.71;82.28
11936;BME280;6027;48.576;9.180;2023-04-09T08:31:16;97532.50;;;8.64;80.66
11936;BME280;6027;48.576;9.180;2023-04-09T08:33:41;97526.88;;;8.67;77.74
11936;BME280;6027;48.576;9.180;2023-04-09T08:36:08;97537.63;;;8.65;79.27
11936;BME280;6027;48.576;9.180;2023-04-09T08:38:33;97540.16;;;8.75;78.88
11936;BME280;6027;48.576;9.180;2023-04-09T08:40:59;97545.97;;;8.79;78.53
11936;BME280;6027;48.576;9.180;2023-04-09T08:43:27;97536.91;;;8.81;77.29
11936;BME280;6027;48.576;9.180;2023-04-09T08:45:52;97534.03;;;8.75;76.77
11936;BME280;6027;48.576;9.180;2023-04-09T08:48:23;97540.44;;;8.72;74.99
11936;BME280;6027;48.576;9.180;2023-04-09T08:50:48;97540.88;;;8.85;75.94
11936;BME280;6027;48.576;9.180;2023-04-09T08:53:15;97533.38;;;8.98;73.08
11936;BME280;6027;48.576;9.180;2023-04-09T08:55:44;97534.00;;;9.18;71.87
11936;BME280;6027;48.576;9.180;2023-04-09T08:58:10;97529.66;;;9.51;72.41
11936;BME280;6027;48.576;9.180;2023-04-09T09:00:36;97539.03;;;9.80;76.62
11936;BME280;6027;48.576;9.180;2023-04-09T09:05:36;97540.78;;;10.21;63.59
11936;BME280;6027;48.576;9.180;2023-04-09T09:08:02;97547.25;;;10.27;62.88
11936;BME280;6027;48.576;9.180;2023-04-09T09:15:48;97549.03;;;10.18;57.42
11936;BME280;6027;48.576;9.180;2023-04-09T09:18:17;97548.72;;;10.21;57.49
11936;BME280;6027;48.576;9.180;2023-04-09T09:20:43;97536.53;;;10.36;56.53
11936;BME280;6027;48.576;9.180;2023-04-09T09:23:09;97547.41;;;10.25;55.13
11936;BME280;6027;48.576;9.180;2023-04-09T09:25:41;97547.25;;;10.27;55.93
11936;BME280;6027;48.576;9.180;2023-04-09T09:28:08;97548.59;;;10.55;55.41
11936;BME280;6027;48.576;9.180;2023-04-09T09:30:35;97547.41;;;10.82;55.32
11936;BME280;6027;48.576;9.180;2023-04-09T09:33:06;97544.09;;;10.96;55.81
11936;BME280;6027;48.576;9.180;2023-04-09T09:35:52;97544.56;;;11.08;54.30
11936;BME280;6027;48.576;9.180;2023-04-09T09:38:19;97548.56;;;10.96;53.71
11936;BME280;6027;48.576;9.180;2023-04-09T09:40:46;97551.22;;;10.88;55.16
11936;BME280;6027;48.576;9.180;2023-04-09T09:43:14;97557.34;;;10.64;52.81
11936;BME280;6027;48.576;9.180;2023-04-09T09:45:40;97546.44;;;10.51;54.36
11936;BME280;6027;48.576;9.180;2023-04-09T09:48:10;97547.25;;;10.43;54.46
11936;BME280;6027;48.576;9.180;2023-04-09T09:50:37;97558.50;;;10.45;56.14
11936;BME280;6027;48.576;9.180;2023-04-09T09:53:05;97557.53;;;10.46;54.32
11936;BME280;6027;48.576;9.180;2023-04-09T09:55:31;97548.41;;;10.41;53.42
11936;BME280;6027;48.576;9.180;2023-04-09T09:58:01;97552.25;;;10.38;53.04
11936;BME280;6027;48.576;9.180;2023-04-09T10:00:28;97558.53;;;10.37;54.38
11936;BME280;6027;48.576;9.180;2023-04-09T10:02:58;97556.88;;;10.36;57.14
11936;BME280;6027;48.576;9.180;2023-04-09T10:05:25;97553.38;;;10.35;56.08
11936;BME280;6027;48.576;9.180;2023-04-09T10:07:56;97565.06;;;10.17;56.25
11936;BME280;6027;48.576;9.180;2023-04-09T10:10:23;97562.63;;;10.23;56.53
11936;BME280;6027;48.576;9.180;2023-04-09T10:12:49;97563.88;;;10.03;56.83
11936;BME280;6027;48.576;9.180;2023-04-09T10:15:19;97560.94;;;10.14;59.96
11936;BME280;6027;48.576;9.180;2023-04-09T10:17:45;97550.72;;;10.44;66.97
11936;BME280;6027;48.576;9.180;2023-04-09T10:20:27;97547.91;;;10.78;59.76
11936;BME280;6027;48.576;9.180;2023-04-09T10:22:55;97555.03;;;10.93;59.44
11936;BME280;6027;48.576;9.180;2023-04-09T10:25:21;97547.22;;;11.00;54.92
11936;BME280;6027;48.576;9.180;2023-04-09T10:27:59;97548.00;;;11.25;57.37
11936;BME280;6027;48.576;9.180;2023-04-09T10:30:34;97546.47;;;11.38;54.81
11936;BME280;6027;48.576;9.180;2023-04-09T10:33:08;97554.13;;;11.25;53.19
11936;BME280;6027;48.576;9.180;2023-04-09T10:35:34;97548.22;;;10.99;54.04
11936;BME280;6027;48.576;9.180;2023-04-09T10:38:06;97550.06;;;10.82;53.13
11936;BME280;6027;48.576;9.180;2023-04-09T10:40:32;97546.63;;;10.57;55.00
11936;BME280;6027;48.576;9.180;2023-04-09T10:42:58;97548.09;;;10.44;56.23
11936;BME280;6027;48.576;9.180;2023-04-09T10:45:24;97547.78;;;10.38;52.96
11936;BME280;6027;48.576;9.180;2023-04-09T10:48:03;97545.44;;;10.60;55.33
11936;BME280;6027;48.576;9.180;2023-04-09T10:50:31;97540.63;;;10.80;53.65
11936;BME280;6027;48.576;9.180;2023-04-09T10:52:57;97547.72;;;11.03;50.30
11936;BME280;6027;48.576;9.180;2023-04-09T10:55:40;97545.22;;;11.10;51.26
11936;BME280;6027;48.576;9.180;2023-04-09T11:00:38;97547.75;;;10.87;52.19
11936;BME280;6027;48.576;9.180;2023-04-09T11:03:25;97542.44;;;10.95;53.63
11936;BME280;6027;48.576;9.180;2023-04-09T11:06:01;97543.44;;;10.86;50.21
11936;BME280;6027;48.576;9.180;2023-04-09T11:08:29;97535.81;;;10.83;51.42
11936;BME280;6027;48.576;9.180;2023-04-09T11:10:55;97525.88;;;10.93;51.42
11936;BME280;6027;48.576;9.180;2023-04-09T11:13:23;97532.16;;;11.08;49.88
11936;BME280;6027;48.576;9.180;2023-04-09T11:15:49;97537.06;;;11.28;51.44
11936;BME280;6027;48.576;9.180;2023-04-09T11:18:23;97540.88;;;11.17;48.74
11936;BME280;6027;48.576;9.180;2023-04-09T11:20:49;97531.66;;;11.13;49.29
11936;BME280;6027;48.576;9.180;2023-04-09T11:23:15;97528.16;;;11.13;50.19
11936;BME280;6027;48.576;9.180;2023-04-09T11:25:41;97529.34;;;11.02;50.47
11936;BME280;6027;48.576;9.180;2023-04-09T11:28:07;97524.19;;;11.00;50.61
11936;BME280;6027;48.576;9.180;2023-04-09T11:30:33;97518.25;;;10.98;51.64
11936;BME280;6027;48.576;9.180;2023-04-09T11:33:00;97513.38;;;11.18;51.96
11936;BME280;6027;48.576;9.180;2023-04-09T11:35:26;97517.53;;;11.21;50.89
11936;BME280;6027;48.576;9.180;2023-04-09T11:37:52;97512.88;;;11.31;50.02
11936;BME280;6027;48.576;9.180;2023-04-09T11:40:23;97513.88;;;11.22;51.63
11936;BME280;6027;48.576;9.180;2023-04-09T11:42:51;97520.16;;;11.29;52.93
11936;BME280;6027;48.576;9.180;2023-04-09T11:45:24;97517.44;;;11.45;51.29
11936;BME280;6027;48.576;9.180;2023-04-09T11:47:50;97516.44;;;11.46;51.31
11936;BME280;6027;48.576;9.180;2023-04-09T11:50:16;97513.22;;;11.28;49.51
11936;BME280;6027;48.576;9.180;2023-04-09T11:52:44;97514.00;;;11.36;48.64
11936;BME280;6027;48.576;9.180;2023-04-09T11:55:10;97526.16;;;11.62;50.56
11936;BME280;6027;48.576;9.180;2023-04-09T11:57:44;97509.22;;;11.71;47.76
11936;BME280;6027;48.576;9.180;2023-04-09T12:00:12;97515.94;;;11.90;48.24
11936;BME280;6027;48.576;9.180;2023-04-09T12:02:43;97514.03;;;12.29;50.79
11936;BME280;6027;48.576;9.180;2023-04-09T12:05:11;97515.47;;;12.55;48.74
11936;BME280;6027;48.576;9.180;2023-04-09T12:07:38;97520.47;;;12.72;48.30
11936;BME280;6027;48.576;9.180;2023-04-09T12:10:08;97515.91;;;12.81;46.86
11936;BME280;6027;48.576;9.180;2023-04-09T12:12:41;97505.63;;;12.78;44.98
11936;BME280;6027;48.576;9.180;2023-04-09T12:15:20;97506.13;;;12.82;45.70
11936;BME280;6027;48.576;9.180;2023-04-09T12:17:52;97513.06;;;12.83;46.85
11936;BME280;6027;48.576;9.180;2023-04-09T12:20:34;97506.81;;;12.75;46.90
11936;BME280;6027;48.576;9.180;2023-04-09T12:23:01;97506.22;;;13.03;49.57
11936;BME280;6027;48.576;9.180;2023-04-09T12:25:29;97500.81;;;13.11;45.13
11936;BME280;6027;48.576;9.180;2023-04-09T12:27:55;97496.31;;;13.11;44.30
11936;BME280;6027;48.576;9.180;2023-04-09T12:30:22;97488.47;;;13.33;46.86
11936;BME280;6027;48.576;9.180;2023-04-09T12:32:47;97489.13;;;13.35;46.88
11936;BME280;6027;48.576;9.180;2023-04-09T12:35:13;97488.03;;;13.44;43.78
11936;BME280;6027;48.576;9.180;2023-04-09T12:37:39;97487.28;;;13.35;46.40
11936;BME280;6027;48.576;9.180;2023-04-09T12:40:05;97486.81;;;13.46;44.33
11936;BME280;6027;48.576;9.180;2023-04-09T12:42:30;97481.56;;;13.53;43.02
11936;BME280;6027;48.576;9.180;2023-04-09T12:44:56;97486.13;;;13.74;46.19
11936;BME280;6027;48.576;9.180;2023-04-09T12:47:21;97471.63;;;13.76;42.53
11936;BME280;6027;48.576;9.180;2023-04-09T12:49:47;97480.47;;;13.47;42.17
11936;BME280;6027;48.576;9.180;2023-04-09T12:52:14;97477.38;;;13.29;41.45
11936;BME280;6027;48.576;9.180;2023-04-09T12:54:40;97470.97;;;13.24;43.17
11936;BME280;6027;48.576;9.180;2023-04-09T12:57:06;97465.72;;;13.45;43.99
11936;BME280;6027;48.576;9.180;2023-04-09T12:59:32;97466.16;;;13.48;41.90
11936;BME280;6027;48.576;9.180;2023-04-09T13:01:58;97459.88;;;13.71;44.10
11936;BME280;6027;48.576;9.180;2023-04-09T13:04:23;97466.34;;;13.62;41.11
11936;BME280;6027;48.576;9.180;2023-04-09T13:06:48;97463.72;;;13.83;42.91
11936;BME280;6027;48.576;9.180;2023-04-09T13:09:14;97458.63;;;13.88;45.35
11936;BME280;6027;48.576;9.180;2023-04-09T13:11:40;97448.81;;;14.10;44.42
11936;BME280;6027;48.576;9.180;2023-04-09T13:14:05;97450.19;;;14.42;42.77
11936;BME280;6027;48.576;9.180;2023-04-09T13:16:30;97454.53;;;14.49;43.00
11936;BME280;6027;48.576;9.180;2023-04-09T13:18:57;97453.47;;;14.44;41.67
11936;BME280;6027;48.576;9.180;2023-04-09T13:21:22;97446.31;;;14.02;41.41
11936;BME280;6027;48.576;9.180;2023-04-09T13:23:48;97450.16;;;13.78;42.51
11936;BME280;6027;48.576;9.180;2023-04-09T13:26:13;97448.53;;;13.62;43.70
11936;BME280;6027;48.576;9.180;2023-04-09T13:28:38;97446.81;;;13.55;43.51
11936;BME280;6027;48.576;9.180;2023-04-09T13:31:04;97431.56;;;13.27;43.84
11936;BME280;6027;48.576;9.180;2023-04-09T13:33:30;97446.66;;;13.41;43.06
11936;BME280;6027;48.576;9.180;2023-04-09T13:35:56;97440.41;;;13.34;44.95
11936;BME280;6027;48.576;9.180;2023-04-09T13:38:21;97441.16;;;13.43;43.80
11936;BME280;6027;48.576;9.180;2023-04-09T13:40:47;97432.16;;;13.29;43.28
11936;BME280;6027;48.576;9.180;2023-04-09T13:43:12;97438.59;;;13.20;43.41